createdAt,value
2023-01-17T00:01:48.753Z,3.88
2023-01-17T00:04:34.098Z,4.18
2023-01-17T00:07:19.442Z,4.47
2023-01-17T00:09:53.959Z,7.03
2023-01-17T00:12:22.504Z,4.10
2023-01-17T00:14:50.051Z,4.18
2023-01-17T00:17:17.525Z,4.00
2023-01-17T00:20:02.485Z,5.05
2023-01-17T00:22:49.237Z,4.83
2023-01-17T00:25:37.434Z,3.90
2023-01-17T00:28:05.344Z,3.95
2023-01-17T00:30:31.780Z,3.80
2023-01-17T00:32:58.426Z,5.68
2023-01-17T00:35:26.519Z,4.07
2023-01-17T00:38:01.112Z,3.83
2023-01-17T00:40:28.874Z,3.45
2023-01-17T00:43:14.203Z,4.82
2023-01-17T00:46:01.616Z,3.65
2023-01-17T00:48:46.723Z,3.60
2023-01-17T00:51:31.958Z,3.50
2023-01-17T00:54:18.971Z,6.25
2023-01-17T00:57:05.786Z,3.70
2023-01-17T00:59:50.943Z,3.65
2023-01-17T01:02:36.372Z,4.68
2023-01-17T01:05:21.835Z,4.53
2023-01-17T01:08:07.122Z,4.53
2023-01-17T01:10:52.489Z,5.20
2023-01-17T01:13:41.580Z,5.18
2023-01-17T01:16:26.826Z,6.40
2023-01-17T01:19:12.280Z,5.90
2023-01-17T01:21:57.665Z,5.82
2023-01-17T01:24:42.995Z,5.85
2023-01-17T01:27:28.336Z,5.35
2023-01-17T01:30:14.924Z,5.60
2023-01-17T01:33:00.353Z,5.78
2023-01-17T01:35:27.919Z,5.93
2023-01-17T01:37:55.568Z,5.70
2023-01-17T01:40:23.332Z,3.80
2023-01-17T01:42:52.759Z,3.30
2023-01-17T01:45:23.956Z,3.83
2023-01-17T01:47:54.795Z,2.58
2023-01-17T01:50:22.714Z,2.88
2023-01-17T01:52:55.251Z,3.15
2023-01-17T01:55:26.960Z,4.63
2023-01-17T01:57:58.441Z,3.03
2023-01-17T02:00:31.064Z,4.75
2023-01-17T02:03:03.363Z,3.10
2023-01-17T02:05:32.764Z,5.90
2023-01-17T02:08:04.019Z,2.97
2023-01-17T02:10:33.422Z,4.78
2023-01-17T02:13:01.436Z,3.25
2023-01-17T02:15:36.961Z,4.80
2023-01-17T02:18:16.998Z,4.22
2023-01-17T02:21:04.492Z,5.85
2023-01-17T02:23:58.726Z,5.10
2023-01-17T02:26:42.147Z,5.65
2023-01-17T02:29:58.672Z,4.68
2023-01-17T02:32:37.654Z,4.95
2023-01-17T02:35:13.570Z,5.20
2023-01-17T02:37:51.444Z,6.88
2023-01-17T02:40:24.331Z,5.18
2023-01-17T02:42:56.504Z,6.90
2023-01-17T02:45:24.194Z,6.47
2023-01-17T02:47:53.005Z,4.95
2023-01-17T02:50:23.492Z,3.45
2023-01-17T02:53:01.426Z,4.07
2023-01-17T02:55:41.575Z,2.83
2023-01-17T02:58:20.371Z,5.80
2023-01-17T03:00:58.802Z,5.13
2023-01-17T03:03:34.328Z,2.20
2023-01-17T03:08:35.667Z,3.75
2023-01-17T03:11:03.162Z,2.25
2023-01-17T03:13:30.961Z,2.10
2023-01-17T03:15:58.518Z,1.80
2023-01-17T03:18:26.024Z,2.08
2023-01-17T03:20:54.838Z,2.20
2023-01-17T03:23:22.315Z,2.10
2023-01-17T03:25:49.800Z,2.33
2023-01-17T03:28:17.513Z,2.17
2023-01-17T03:30:45.089Z,2.45
2023-01-17T03:33:12.682Z,2.40
2023-01-17T03:35:40.186Z,2.78
2023-01-17T03:38:08.984Z,2.53
2023-01-17T03:40:36.476Z,2.50
2023-01-17T03:43:04.073Z,2.97
2023-01-17T03:45:31.587Z,2.60
2023-01-17T03:47:59.755Z,3.03
2023-01-17T03:50:27.374Z,2.50
2023-01-17T03:52:54.862Z,2.65
2023-01-17T03:55:23.885Z,2.90
2023-01-17T03:57:51.435Z,3.83
2023-01-17T04:00:20.714Z,3.47
2023-01-17T04:02:48.244Z,5.03
2023-01-17T04:05:16.034Z,3.45
2023-01-17T04:07:43.729Z,3.28
2023-01-17T04:10:11.657Z,3.95
2023-01-17T04:12:41.500Z,4.60
2023-01-17T04:15:09.698Z,3.95
2023-01-17T04:17:37.210Z,2.92
2023-01-17T04:20:05.541Z,3.08
2023-01-17T04:22:33.001Z,3.78
2023-01-17T04:25:00.941Z,3.28
2023-01-17T04:27:28.469Z,2.92
2023-01-17T04:29:57.288Z,5.53
2023-01-17T04:32:24.741Z,4.18
2023-01-17T04:34:52.274Z,3.75
2023-01-17T04:37:20.096Z,4.57
2023-01-17T04:39:47.563Z,8.50
2023-01-17T04:42:15.050Z,4.32
2023-01-17T04:44:42.578Z,6.90
2023-01-17T04:47:11.375Z,4.25
2023-01-17T04:49:38.843Z,4.78
2023-01-17T04:52:06.444Z,5.85
2023-01-17T04:54:33.968Z,5.43
2023-01-17T04:57:01.449Z,8.32
2023-01-17T04:59:28.954Z,8.27
2023-01-17T05:01:56.452Z,8.13
2023-01-17T05:04:25.346Z,5.88
2023-01-17T05:06:52.827Z,9.60
2023-01-17T05:09:20.295Z,8.00
2023-01-17T05:11:47.778Z,6.25
2023-01-17T05:14:15.276Z,8.27
2023-01-17T05:16:42.953Z,7.88
2023-01-17T05:19:10.530Z,6.43
2023-01-17T05:21:39.374Z,5.13
2023-01-17T05:24:07.985Z,4.90
2023-01-17T05:26:35.501Z,5.18
2023-01-17T05:29:02.986Z,6.22
2023-01-17T05:31:30.470Z,7.13
2023-01-17T05:33:57.963Z,4.20
2023-01-17T05:36:25.474Z,7.85
2023-01-17T05:38:54.282Z,8.65
2023-01-17T05:41:22.004Z,4.68
2023-01-17T05:43:49.488Z,7.53
2023-01-17T05:46:17.968Z,5.38
2023-01-17T05:48:45.586Z,9.95
2023-01-17T05:51:13.087Z,4.72
2023-01-17T05:53:40.553Z,8.80
2023-01-17T05:56:09.429Z,6.28
2023-01-17T05:58:36.901Z,9.10
2023-01-17T06:01:04.464Z,5.53
2023-01-17T06:03:31.976Z,4.53
2023-01-17T06:05:59.550Z,4.93
2023-01-17T06:08:27.234Z,7.53
2023-01-17T06:10:54.715Z,8.35
2023-01-17T06:13:23.556Z,5.82
2023-01-17T06:15:51.126Z,6.63
2023-01-17T06:18:19.147Z,6.22
2023-01-17T06:20:46.788Z,7.28
2023-01-17T06:23:15.659Z,5.93
2023-01-17T06:25:44.746Z,6.38
2023-01-17T06:28:13.306Z,6.32
2023-01-17T06:30:43.741Z,6.35
2023-01-17T06:33:11.727Z,7.53
2023-01-17T06:35:40.782Z,7.68
2023-01-17T06:38:09.885Z,7.30
2023-01-17T06:40:37.403Z,8.20
2023-01-17T06:43:05.667Z,7.43
2023-01-17T06:45:35.556Z,9.88
2023-01-17T06:48:05.663Z,10.98
2023-01-17T06:50:34.733Z,8.57
2023-01-17T06:53:04.474Z,9.93
2023-01-17T06:55:34.248Z,5.68
2023-01-17T06:58:02.679Z,6.60
2023-01-17T07:00:40.380Z,7.32
2023-01-17T07:03:18.274Z,7.55
2023-01-17T07:05:45.779Z,10.02
2023-01-17T07:08:13.332Z,8.43
2023-01-17T07:10:40.883Z,6.05
2023-01-17T07:13:08.436Z,8.00
2023-01-17T07:15:35.907Z,11.32
2023-01-17T07:18:03.925Z,8.80
2023-01-17T07:20:33.004Z,10.60
2023-01-17T07:23:00.881Z,8.52
2023-01-17T07:25:34.339Z,10.98
2023-01-17T07:28:01.837Z,11.23
2023-01-17T07:30:32.581Z,12.32
2023-01-17T07:33:03.093Z,10.77
2023-01-17T07:35:30.580Z,16.42
2023-01-17T07:37:59.571Z,16.63
2023-01-17T07:40:27.169Z,11.35
2023-01-17T07:42:54.654Z,15.27
2023-01-17T07:45:22.168Z,13.23
2023-01-17T07:47:50.152Z,12.40
2023-01-17T07:50:17.775Z,13.77
2023-01-17T07:52:50.423Z,13.82
2023-01-17T07:55:19.405Z,19.35
2023-01-17T07:57:50.239Z,15.63
2023-01-17T08:00:18.896Z,15.48
2023-01-17T08:02:46.367Z,13.75
2023-01-17T08:05:14.043Z,16.55
2023-01-17T08:07:41.532Z,18.83
2023-01-17T08:10:13.041Z,17.73
2023-01-17T08:12:41.911Z,14.75
2023-01-17T08:15:11.101Z,15.52
2023-01-17T08:17:38.595Z,13.48
2023-01-17T08:20:07.063Z,14.38
2023-01-17T08:22:34.542Z,17.67
2023-01-17T08:25:02.024Z,13.90
2023-01-17T08:27:30.286Z,15.63
2023-01-17T08:29:59.142Z,14.48
2023-01-17T08:32:26.627Z,16.25
2023-01-17T08:34:56.421Z,23.45
2023-01-17T08:37:24.309Z,18.05
2023-01-17T08:39:51.825Z,18.40
2023-01-17T08:42:19.329Z,15.63
2023-01-17T08:44:46.901Z,17.90
2023-01-17T08:47:15.724Z,15.18
2023-01-17T08:49:43.888Z,17.65
2023-01-17T08:52:13.031Z,18.17
2023-01-17T08:54:40.522Z,21.08
2023-01-17T08:57:07.978Z,17.23
2023-01-17T08:59:35.645Z,14.40
2023-01-17T09:02:06.626Z,14.20
2023-01-17T09:04:36.354Z,14.95
2023-01-17T09:07:07.348Z,16.13
2023-01-17T09:09:34.838Z,18.65
2023-01-17T09:12:02.433Z,18.85
2023-01-17T09:14:29.895Z,13.75
2023-01-17T09:16:57.576Z,21.60
2023-01-17T09:19:25.080Z,16.05
2023-01-17T09:21:53.961Z,20.35
2023-01-17T09:24:21.449Z,23.02
2023-01-17T09:26:49.029Z,19.30
2023-01-17T09:29:17.821Z,24.30
2023-01-17T09:31:47.024Z,20.73
2023-01-17T09:34:15.133Z,20.05
2023-01-17T09:36:42.923Z,18.05
2023-01-17T09:39:14.337Z,19.98
2023-01-17T09:41:48.635Z,24.27
2023-01-17T09:44:25.720Z,18.63
2023-01-17T09:46:55.249Z,21.40
2023-01-17T09:49:33.899Z,18.70
2023-01-17T09:52:02.229Z,16.33
2023-01-17T09:54:36.305Z,14.63
2023-01-17T09:57:14.192Z,17.60
2023-01-17T10:00:02.973Z,13.95
2023-01-17T10:02:56.871Z,18.05
2023-01-17T10:05:36.688Z,16.90
2023-01-17T10:08:15.917Z,15.23
2023-01-17T10:10:55.008Z,13.80
2023-01-17T10:13:38.953Z,15.27
2023-01-17T10:16:21.368Z,15.90
2023-01-17T10:19:07.268Z,15.02
2023-01-17T10:24:25.527Z,16.05
2023-01-17T10:26:57.074Z,20.15
2023-01-17T10:29:29.925Z,14.52
2023-01-17T10:32:00.153Z,19.33
2023-01-17T10:34:33.889Z,17.50
2023-01-17T10:37:06.836Z,14.85
2023-01-17T10:39:36.038Z,14.68
2023-01-17T10:42:14.526Z,15.85
2023-01-17T10:44:48.742Z,15.57
2023-01-17T10:47:21.500Z,19.67
2023-01-17T10:49:51.896Z,13.35
2023-01-17T10:52:29.826Z,14.57
2023-01-17T10:55:16.899Z,22.13
2023-01-17T10:57:47.303Z,15.48
2023-01-17T11:00:41.696Z,15.57
2023-01-17T11:03:11.828Z,13.02
2023-01-17T11:05:40.626Z,16.15
2023-01-17T11:08:09.902Z,16.05
2023-01-17T11:10:40.836Z,15.35
2023-01-17T11:13:24.644Z,15.68
2023-01-17T11:15:57.400Z,14.15
2023-01-17T11:18:28.416Z,10.63
2023-01-17T11:21:12.685Z,19.02
2023-01-17T11:23:43.108Z,11.57
2023-01-17T11:26:21.046Z,20.35
2023-01-17T11:28:53.030Z,13.65
2023-01-17T11:31:27.461Z,15.77
2023-01-17T11:34:14.961Z,15.87
2023-01-17T11:36:42.763Z,14.13
2023-01-17T11:39:27.466Z,10.88
2023-01-17T11:41:55.566Z,13.50
2023-01-17T11:44:29.247Z,13.75
2023-01-17T11:47:19.114Z,13.15
2023-01-17T11:49:48.067Z,10.10
2023-01-17T11:52:23.333Z,13.20
2023-01-17T11:54:53.343Z,16.80
2023-01-17T11:57:24.981Z,10.95
2023-01-17T12:00:01.091Z,12.15
2023-01-17T12:02:41.097Z,11.77
2023-01-17T12:05:21.548Z,15.07
2023-01-17T12:07:56.459Z,8.18
2023-01-17T12:10:29.334Z,15.20
2023-01-17T12:13:23.401Z,11.45
2023-01-17T12:16:22.663Z,12.98
2023-01-17T12:18:59.014Z,11.85
2023-01-17T12:21:35.171Z,13.73
2023-01-17T12:24:31.319Z,11.40
2023-01-17T12:27:08.933Z,14.32
2023-01-17T12:29:47.547Z,15.25
2023-01-17T12:32:36.742Z,13.30
2023-01-17T12:35:13.665Z,10.23
2023-01-17T12:37:44.612Z,10.50
2023-01-17T12:40:22.539Z,10.07
2023-01-17T12:42:55.634Z,14.63
2023-01-17T12:45:27.132Z,10.40
2023-01-17T12:48:01.509Z,10.90
2023-01-17T12:50:35.031Z,13.13
2023-01-17T12:53:10.856Z,14.68
2023-01-17T12:55:42.745Z,14.45
2023-01-17T12:58:16.856Z,10.60
2023-01-17T13:00:47.707Z,11.75
2023-01-17T13:03:28.117Z,10.80
2023-01-17T13:05:58.470Z,16.75
2023-01-17T13:08:31.321Z,12.75
2023-01-17T13:11:04.447Z,10.63
2023-01-17T13:13:35.544Z,15.43
2023-01-17T13:16:08.808Z,16.33
2023-01-17T13:18:42.789Z,12.93
2023-01-17T13:21:27.671Z,9.07
2023-01-17T13:24:11.631Z,8.13
2023-01-17T13:26:53.871Z,10.40
2023-01-17T13:29:29.439Z,10.80
2023-01-17T13:32:04.624Z,9.68
2023-01-17T13:35:01.693Z,12.13
2023-01-17T13:37:42.442Z,10.95
2023-01-17T13:40:29.618Z,11.77
2023-01-17T13:43:00.617Z,10.10
2023-01-17T13:45:31.402Z,10.43
2023-01-17T13:48:26.246Z,12.35
2023-01-17T13:50:56.472Z,6.75
2023-01-17T13:53:59.808Z,7.68
2023-01-17T13:56:33.608Z,9.23
2023-01-17T13:59:03.868Z,5.53
2023-01-17T14:01:51.882Z,13.38
2023-01-17T14:04:19.805Z,5.13
2023-01-17T14:06:55.398Z,11.27
2023-01-17T14:09:26.957Z,16.33
2023-01-17T14:12:01.096Z,6.15
2023-01-17T14:14:48.493Z,6.40
2023-01-17T14:17:57.531Z,7.68
2023-01-17T14:20:49.716Z,8.73
2023-01-17T14:23:26.900Z,12.38
2023-01-17T14:25:55.849Z,7.25
2023-01-17T14:28:30.233Z,9.13
2023-01-17T14:31:00.436Z,11.63
2023-01-17T14:33:30.782Z,8.77
2023-01-17T14:36:01.745Z,6.35
2023-01-17T14:38:32.540Z,5.68
2023-01-17T14:41:03.429Z,6.07
2023-01-17T14:43:34.665Z,4.40
2023-01-17T14:46:05.134Z,6.97
2023-01-17T14:48:32.647Z,12.18
2023-01-17T14:51:01.733Z,8.70
2023-01-17T14:53:31.657Z,7.70
2023-01-17T14:56:02.397Z,10.20
2023-01-17T14:58:31.595Z,8.88
2023-01-17T15:01:02.424Z,6.82
2023-01-17T15:03:33.263Z,6.03
2023-01-17T15:06:11.201Z,6.90
2023-01-17T15:08:40.586Z,3.35
2023-01-17T15:11:11.723Z,5.50
2023-01-17T15:13:45.123Z,7.68
2023-01-17T15:16:21.635Z,6.38
2023-01-17T15:18:49.300Z,8.43
2023-01-17T15:21:19.232Z,6.25
2023-01-17T15:23:51.186Z,12.07
2023-01-17T15:26:23.072Z,6.78
2023-01-17T15:28:51.766Z,4.45
2023-01-17T15:31:24.927Z,7.82
2023-01-17T15:33:56.317Z,5.32
2023-01-17T15:36:32.294Z,4.85
2023-01-17T15:39:03.239Z,6.75
2023-01-17T15:41:34.503Z,6.95
2023-01-17T15:44:02.621Z,9.82
2023-01-17T15:46:32.804Z,7.82
2023-01-17T15:49:17.848Z,7.47
2023-01-17T15:51:51.703Z,11.48
2023-01-17T15:54:47.394Z,11.52
2023-01-17T15:57:25.531Z,5.82
2023-01-17T15:59:56.080Z,5.53
2023-01-17T16:02:43.639Z,5.93
2023-01-17T16:05:38.521Z,7.78
2023-01-17T16:08:39.371Z,7.75
2023-01-17T16:11:11.591Z,6.45
2023-01-17T16:13:42.076Z,8.32
2023-01-17T16:16:11.541Z,9.48
2023-01-17T16:18:40.244Z,5.53
2023-01-17T16:21:18.540Z,10.90
2023-01-17T16:23:46.322Z,6.60
2023-01-17T16:26:15.202Z,7.60
2023-01-17T16:28:42.988Z,5.35
2023-01-17T16:31:10.596Z,13.85
2023-01-17T16:33:39.152Z,8.60
2023-01-17T16:36:07.348Z,6.43
2023-01-17T16:38:34.813Z,10.65
2023-01-17T16:41:04.706Z,5.60
2023-01-17T16:43:33.536Z,7.22
2023-01-17T16:46:01.386Z,9.65
2023-01-17T16:48:28.857Z,9.57
2023-01-17T16:50:56.329Z,8.02
2023-01-17T16:53:25.516Z,10.80
2023-01-17T16:55:55.439Z,26.85
2023-01-17T16:58:22.936Z,24.00
2023-01-17T17:00:51.989Z,20.35
2023-01-17T17:03:21.324Z,15.88
2023-01-17T17:05:56.424Z,15.90
2023-01-17T17:08:25.206Z,16.25
2023-01-17T17:10:52.830Z,12.43
2023-01-17T17:13:20.384Z,14.82
2023-01-17T17:15:48.574Z,15.05
2023-01-17T17:18:18.952Z,13.32
2023-01-17T17:20:46.931Z,11.68
2023-01-17T17:23:14.675Z,13.35
2023-01-17T17:25:42.180Z,15.10
2023-01-17T17:28:11.697Z,12.00
2023-01-17T17:30:39.175Z,15.45
2023-01-17T17:33:06.661Z,15.27
2023-01-17T17:35:35.887Z,9.88
2023-01-17T17:38:05.354Z,12.00
2023-01-17T17:40:34.896Z,16.77
2023-01-17T17:43:02.448Z,20.73
2023-01-17T17:45:29.964Z,10.52
2023-01-17T17:47:57.675Z,14.90
2023-01-17T17:50:25.152Z,9.57
2023-01-17T17:52:53.966Z,11.50
2023-01-17T17:55:21.444Z,15.07
2023-01-17T17:57:48.980Z,15.43
2023-01-17T18:00:17.686Z,18.25
2023-01-17T18:02:45.164Z,20.08
2023-01-17T18:05:12.764Z,18.30
2023-01-17T18:07:40.434Z,20.23
2023-01-17T18:10:10.612Z,22.38
2023-01-17T18:12:38.102Z,11.98
2023-01-17T18:15:06.485Z,14.73
2023-01-17T18:17:33.967Z,12.18
2023-01-17T18:20:01.546Z,14.07
2023-01-17T18:22:29.096Z,16.10
2023-01-17T18:24:56.639Z,11.60
2023-01-17T18:27:25.526Z,10.55
2023-01-17T18:29:53.095Z,8.73
2023-01-17T18:32:20.565Z,12.10
2023-01-17T18:34:48.050Z,7.85
2023-01-17T18:37:15.766Z,13.55
2023-01-17T18:39:43.665Z,12.30
2023-01-17T18:42:11.766Z,12.48
2023-01-17T18:44:40.721Z,17.65
2023-01-17T18:47:10.768Z,13.15
2023-01-17T18:49:38.273Z,13.30
2023-01-17T18:52:07.900Z,11.70
2023-01-17T18:54:35.591Z,16.27
2023-01-17T18:57:03.087Z,17.77
2023-01-17T18:59:30.608Z,17.23
2023-01-17T19:01:59.458Z,16.98
2023-01-17T19:04:28.287Z,19.13
2023-01-17T19:06:58.329Z,18.02
2023-01-17T19:09:26.033Z,16.45
2023-01-17T19:11:53.554Z,18.10
2023-01-17T19:14:21.033Z,18.77
2023-01-17T19:16:48.523Z,20.10
2023-01-17T19:19:17.377Z,21.73
2023-01-17T19:21:45.161Z,16.00
2023-01-17T19:24:14.199Z,20.48
2023-01-17T19:26:41.891Z,16.70
2023-01-17T19:29:09.864Z,22.58
2023-01-17T19:31:42.228Z,27.88
2023-01-17T19:34:10.205Z,26.70
2023-01-17T19:36:40.363Z,20.35
2023-01-17T19:39:10.259Z,21.35
2023-01-17T19:41:42.119Z,21.35
2023-01-17T19:44:11.701Z,17.15
2023-01-17T19:46:39.508Z,19.67
2023-01-17T19:49:08.721Z,23.10
2023-01-17T19:51:36.521Z,18.00
2023-01-17T19:54:07.805Z,31.10
2023-01-17T19:56:35.703Z,26.80
2023-01-17T19:59:03.335Z,22.83
2023-01-17T20:01:32.798Z,23.60
2023-01-17T20:04:02.068Z,31.25
2023-01-17T20:06:32.182Z,29.88
2023-01-17T20:08:59.727Z,23.90
2023-01-17T20:11:30.038Z,29.20
2023-01-17T20:13:59.902Z,30.75
2023-01-17T20:16:29.407Z,26.77
2023-01-17T20:18:57.848Z,26.55
2023-01-17T20:21:27.326Z,21.80
2023-01-17T20:23:56.406Z,25.10
2023-01-17T20:26:28.935Z,25.75
2023-01-17T20:28:57.992Z,23.67
2023-01-17T20:31:26.656Z,29.13
2023-01-17T20:33:56.148Z,26.58
2023-01-17T20:36:25.558Z,21.13
2023-01-17T20:38:54.463Z,22.30
2023-01-17T20:41:24.434Z,29.42
2023-01-17T20:43:53.794Z,18.58
2023-01-17T20:46:25.490Z,18.15
2023-01-17T20:48:55.056Z,18.60
2023-01-17T20:51:23.809Z,18.40
2023-01-17T20:53:53.369Z,16.52
2023-01-17T20:56:20.957Z,22.17
2023-01-17T20:58:51.561Z,20.23
2023-01-17T21:01:21.005Z,16.48
2023-01-17T21:03:53.636Z,17.65
2023-01-17T21:06:22.849Z,13.50
2023-01-17T21:08:50.808Z,21.88
2023-01-17T21:11:20.260Z,16.02
2023-01-17T21:13:48.606Z,19.90
2023-01-17T21:16:17.717Z,15.70
2023-01-17T21:18:47.746Z,15.63
2023-01-17T21:21:18.649Z,17.00
2023-01-17T21:23:46.488Z,16.00
2023-01-17T21:26:16.190Z,14.63
2023-01-17T21:28:45.645Z,21.13
2023-01-17T21:31:20.242Z,18.05
2023-01-17T21:33:48.516Z,16.73
2023-01-17T21:36:17.472Z,15.13
2023-01-17T21:38:49.607Z,14.23
2023-01-17T21:41:17.087Z,16.73
2023-01-17T21:43:44.834Z,14.20
2023-01-17T21:46:12.791Z,20.90
2023-01-17T21:48:40.470Z,19.75
2023-01-17T21:51:09.284Z,21.35
2023-01-17T21:53:39.574Z,20.70
2023-01-17T21:56:26.547Z,16.20
2023-01-17T21:58:56.708Z,22.15
2023-01-17T22:01:26.509Z,17.05
2023-01-17T22:03:55.346Z,25.50
2023-01-17T22:06:25.050Z,20.88
2023-01-17T22:08:54.214Z,19.20
2023-01-17T22:11:23.755Z,23.75
2023-01-17T22:13:52.017Z,17.00
2023-01-17T22:16:21.306Z,18.50
2023-01-17T22:18:49.360Z,23.77
2023-01-17T22:21:19.033Z,16.55
2023-01-17T22:23:47.639Z,23.10
2023-01-17T22:26:16.900Z,19.83
2023-01-17T22:28:44.620Z,26.60
2023-01-17T22:31:14.705Z,22.02
2023-01-17T22:33:44.131Z,21.67
2023-01-17T22:36:14.541Z,19.52
2023-01-17T22:38:42.793Z,22.08
2023-01-17T22:41:12.999Z,20.80
2023-01-17T22:43:43.438Z,23.35
2023-01-17T22:46:12.518Z,20.17
2023-01-17T22:48:40.920Z,21.25
2023-01-17T22:51:10.285Z,22.88
2023-01-17T22:53:41.098Z,19.50
2023-01-17T22:56:12.041Z,22.77
2023-01-17T22:58:42.346Z,20.08
2023-01-17T23:01:13.494Z,18.70
2023-01-17T23:03:42.006Z,25.50
2023-01-17T23:06:12.000Z,21.33
2023-01-17T23:08:41.464Z,24.70
2023-01-17T23:11:41.099Z,18.83
2023-01-17T23:14:11.649Z,19.75
2023-01-17T23:17:00.428Z,25.92
2023-01-17T23:19:30.141Z,23.05
2023-01-17T23:22:19.114Z,24.75
2023-01-17T23:24:50.118Z,25.85
2023-01-17T23:27:38.332Z,28.00
2023-01-17T23:30:08.126Z,24.00
2023-01-17T23:32:37.254Z,23.90
2023-01-17T23:35:05.379Z,22.58
2023-01-17T23:37:50.467Z,28.42
2023-01-17T23:40:18.911Z,24.10
2023-01-17T23:43:04.362Z,17.92
2023-01-17T23:45:35.387Z,22.83
2023-01-17T23:48:05.441Z,17.17
2023-01-17T23:50:34.178Z,17.88
2023-01-17T23:53:06.762Z,23.00
2023-01-17T23:55:36.125Z,16.95
2023-01-17T23:58:03.769Z,25.85
